sensor_id;sensor_type;location;lat;lon;timestamp;P1;durP1;ratioP1;P2;durP2;ratioP2
52888;SDS011;41413;52.770;6.892;2022-08-21T00:01:36;8.48;;;5.20;;
52888;SDS011;41413;52.770;6.892;2022-08-21T00:04:06;9.10;;;5.22;;
52888;SDS011;41413;52.770;6.892;2022-08-21T00:06:34;9.30;;;5.13;;
52888;SDS011;41413;52.770;6.892;2022-08-21T00:09:02;7.43;;;4.63;;
52888;SDS011;41413;52.770;6.892;2022-08-21T00:11:32;10.15;;;5.05;;
52888;SDS011;41413;52.770;6.892;2022-08-21T00:14:01;7.35;;;5.07;;
52888;SDS011;41413;52.770;6.892;2022-08-21T00:16:28;9.73;;;5.65;;
52888;SDS011;41413;52.770;6.892;2022-08-21T00:18:54;7.10;;;5.03;;
52888;SDS011;41413;52.770;6.892;2022-08-21T00:21:21;6.93;;;4.72;;
52888;SDS011;41413;52.770;6.892;2022-08-21T00:23:48;11.52;;;5.05;;
52888;SDS011;41413;52.770;6.892;2022-08-21T00:26:15;11.60;;;5.38;;
52888;SDS011;41413;52.770;6.892;2022-08-21T00:28:41;10.07;;;5.75;;
52888;SDS011;41413;52.770;6.892;2022-08-21T00:31:08;13.02;;;5.20;;
52888;SDS011;41413;52.770;6.892;2022-08-21T00:33:35;7.07;;;6.45;;
52888;SDS011;41413;52.770;6.892;2022-08-21T00:36:02;7.78;;;5.03;;
52888;SDS011;41413;52.770;6.892;2022-08-21T00:38:29;7.90;;;4.90;;
52888;SDS011;41413;52.770;6.892;2022-08-21T00:40:57;5.82;;;5.20;;
52888;SDS011;41413;52.770;6.892;2022-08-21T00:43:46;5.95;;;4.03;;
52888;SDS011;41413;52.770;6.892;2022-08-21T00:46:12;5.32;;;4.72;;
52888;SDS011;41413;52.770;6.892;2022-08-21T00:48:39;5.93;;;4.88;;
52888;SDS011;41413;52.770;6.892;2022-08-21T00:51:08;11.07;;;5.75;;
52888;SDS011;41413;52.770;6.892;2022-08-21T00:53:39;7.63;;;5.75;;
52888;SDS011;41413;52.770;6.892;2022-08-21T00:56:18;7.20;;;5.68;;
52888;SDS011;41413;52.770;6.892;2022-08-21T00:58:47;8.73;;;5.53;;
52888;SDS011;41413;52.770;6.892;2022-08-21T01:01:19;10.52;;;6.45;;
52888;SDS011;41413;52.770;6.892;2022-08-21T01:03:47;9.43;;;6.05;;
52888;SDS011;41413;52.770;6.892;2022-08-21T01:06:15;7.15;;;6.18;;
52888;SDS011;41413;52.770;6.892;2022-08-21T01:08:42;7.63;;;5.57;;
52888;SDS011;41413;52.770;6.892;2022-08-21T01:11:13;13.85;;;6.47;;
52888;SDS011;41413;52.770;6.892;2022-08-21T01:13:41;7.78;;;6.90;;
52888;SDS011;41413;52.770;6.892;2022-08-21T01:16:13;10.98;;;7.05;;
52888;SDS011;41413;52.770;6.892;2022-08-21T01:18:43;7.03;;;6.28;;
52888;SDS011;41413;52.770;6.892;2022-08-21T01:21:12;10.90;;;6.57;;
52888;SDS011;41413;52.770;6.892;2022-08-21T01:23:53;13.43;;;7.20;;
52888;SDS011;41413;52.770;6.892;2022-08-21T01:26:25;10.45;;;6.90;;
52888;SDS011;41413;52.770;6.892;2022-08-21T01:31:27;12.65;;;6.93;;
52888;SDS011;41413;52.770;6.892;2022-08-21T01:33:55;10.68;;;6.25;;
52888;SDS011;41413;52.770;6.892;2022-08-21T01:36:22;11.02;;;6.25;;
52888;SDS011;41413;52.770;6.892;2022-08-21T01:38:50;9.95;;;6.53;;
52888;SDS011;41413;52.770;6.892;2022-08-21T01:41:17;8.10;;;6.55;;
52888;SDS011;41413;52.770;6.892;2022-08-21T01:43:44;10.02;;;6.57;;
52888;SDS011;41413;52.770;6.892;2022-08-21T01:46:11;6.15;;;5.28;;
52888;SDS011;41413;52.770;6.892;2022-08-21T01:48:39;8.23;;;6.60;;
52888;SDS011;41413;52.770;6.892;2022-08-21T01:51:06;13.00;;;6.97;;
52888;SDS011;41413;52.770;6.892;2022-08-21T01:53:33;12.35;;;7.38;;
52888;SDS011;41413;52.770;6.892;2022-08-21T01:56:03;7.15;;;6.45;;
52888;SDS011;41413;52.770;6.892;2022-08-21T01:58:37;8.02;;;6.15;;
52888;SDS011;41413;52.770;6.892;2022-08-21T02:01:05;7.82;;;6.82;;
52888;SDS011;41413;52.770;6.892;2022-08-21T02:03:32;11.52;;;7.38;;
52888;SDS011;41413;52.770;6.892;2022-08-21T02:06:02;7.07;;;6.45;;
52888;SDS011;41413;52.770;6.892;2022-08-21T02:08:29;7.22;;;6.57;;
52888;SDS011;41413;52.770;6.892;2022-08-21T02:10:56;15.25;;;7.25;;
52888;SDS011;41413;52.770;6.892;2022-08-21T02:13:23;9.85;;;6.18;;
52888;SDS011;41413;52.770;6.892;2022-08-21T02:15:50;13.88;;;7.18;;
52888;SDS011;41413;52.770;6.892;2022-08-21T02:18:17;8.85;;;6.22;;
52888;SDS011;41413;52.770;6.892;2022-08-21T02:20:45;10.68;;;7.72;;
52888;SDS011;41413;52.770;6.892;2022-08-21T02:23:20;11.75;;;7.20;;
52888;SDS011;41413;52.770;6.892;2022-08-21T02:25:52;8.82;;;7.50;;
52888;SDS011;41413;52.770;6.892;2022-08-21T02:28:20;9.80;;;8.45;;
52888;SDS011;41413;52.770;6.892;2022-08-21T02:30:48;10.05;;;7.00;;
52888;SDS011;41413;52.770;6.892;2022-08-21T02:33:15;12.25;;;7.07;;
52888;SDS011;41413;52.770;6.892;2022-08-21T02:35:42;10.38;;;8.07;;
52888;SDS011;41413;52.770;6.892;2022-08-21T02:38:12;7.82;;;6.85;;
52888;SDS011;41413;52.770;6.892;2022-08-21T02:40:41;10.85;;;8.15;;
52888;SDS011;41413;52.770;6.892;2022-08-21T02:43:16;15.43;;;8.23;;
52888;SDS011;41413;52.770;6.892;2022-08-21T02:45:44;10.57;;;8.07;;
52888;SDS011;41413;52.770;6.892;2022-08-21T02:48:13;10.65;;;7.72;;
52888;SDS011;41413;52.770;6.892;2022-08-21T02:50:43;9.35;;;7.68;;
52888;SDS011;41413;52.770;6.892;2022-08-21T02:53:17;9.05;;;8.15;;
52888;SDS011;41413;52.770;6.892;2022-08-21T02:55:45;10.30;;;7.55;;
52888;SDS011;41413;52.770;6.892;2022-08-21T02:58:14;11.07;;;6.88;;
52888;SDS011;41413;52.770;6.892;2022-08-21T03:00:43;9.02;;;7.68;;
52888;SDS011;41413;52.770;6.892;2022-08-21T03:03:10;13.55;;;7.65;;
52888;SDS011;41413;52.770;6.892;2022-08-21T03:05:39;8.70;;;7.80;;
52888;SDS011;41413;52.770;6.892;2022-08-21T03:08:08;12.88;;;7.95;;
52888;SDS011;41413;52.770;6.892;2022-08-21T03:10:40;10.80;;;7.95;;
52888;SDS011;41413;52.770;6.892;2022-08-21T03:13:10;9.07;;;8.18;;
52888;SDS011;41413;52.770;6.892;2022-08-21T03:15:38;14.40;;;8.65;;
52888;SDS011;41413;52.770;6.892;2022-08-21T03:18:06;11.13;;;7.18;;
52888;SDS011;41413;52.770;6.892;2022-08-21T03:20:34;15.45;;;8.93;;
52888;SDS011;41413;52.770;6.892;2022-08-21T03:23:02;13.27;;;8.60;;
52888;SDS011;41413;52.770;6.892;2022-08-21T03:25:39;10.93;;;8.95;;
52888;SDS011;41413;52.770;6.892;2022-08-21T03:28:08;13.13;;;10.02;;
52888;SDS011;41413;52.770;6.892;2022-08-21T03:30:39;11.05;;;8.52;;
52888;SDS011;41413;52.770;6.892;2022-08-21T03:33:07;12.55;;;9.68;;
52888;SDS011;41413;52.770;6.892;2022-08-21T03:35:38;13.18;;;10.18;;
52888;SDS011;41413;52.770;6.892;2022-08-21T03:38:05;10.30;;;9.25;;
52888;SDS011;41413;52.770;6.892;2022-08-21T03:40:32;11.70;;;9.20;;
52888;SDS011;41413;52.770;6.892;2022-08-21T03:42:58;12.30;;;9.38;;
52888;SDS011;41413;52.770;6.892;2022-08-21T03:45:25;11.10;;;9.35;;
52888;SDS011;41413;52.770;6.892;2022-08-21T03:47:59;11.55;;;9.30;;
52888;SDS011;41413;52.770;6.892;2022-08-21T03:50:32;10.48;;;8.93;;
52888;SDS011;41413;52.770;6.892;2022-08-21T03:53:06;15.50;;;9.82;;
52888;SDS011;41413;52.770;6.892;2022-08-21T03:55:43;12.07;;;9.50;;
52888;SDS011;41413;52.770;6.892;2022-08-21T03:58:11;9.85;;;8.82;;
52888;SDS011;41413;52.770;6.892;2022-08-21T04:00:42;9.73;;;8.73;;
52888;SDS011;41413;52.770;6.892;2022-08-21T04:03:11;11.73;;;8.90;;
52888;SDS011;41413;52.770;6.892;2022-08-21T04:05:37;14.77;;;10.38;;
52888;SDS011;41413;52.770;6.892;2022-08-21T04:08:05;12.88;;;9.70;;
52888;SDS011;41413;52.770;6.892;2022-08-21T04:10:34;11.82;;;9.13;;
52888;SDS011;41413;52.770;6.892;2022-08-21T04:13:02;10.95;;;8.45;;
52888;SDS011;41413;52.770;6.892;2022-08-21T04:15:30;13.48;;;10.18;;
52888;SDS011;41413;52.770;6.892;2022-08-21T04:17:56;13.93;;;10.15;;
52888;SDS011;41413;52.770;6.892;2022-08-21T04:20:23;12.40;;;9.30;;
52888;SDS011;41413;52.770;6.892;2022-08-21T04:22:51;10.27;;;9.15;;
52888;SDS011;41413;52.770;6.892;2022-08-21T04:25:20;14.57;;;9.85;;
52888;SDS011;41413;52.770;6.892;2022-08-21T04:27:48;14.25;;;9.20;;
52888;SDS011;41413;52.770;6.892;2022-08-21T04:30:15;13.68;;;8.68;;
52888;SDS011;41413;52.770;6.892;2022-08-21T04:32:43;9.63;;;8.57;;
52888;SDS011;41413;52.770;6.892;2022-08-21T04:35:12;13.57;;;9.02;;
52888;SDS011;41413;52.770;6.892;2022-08-21T04:37:40;11.55;;;9.45;;
52888;SDS011;41413;52.770;6.892;2022-08-21T04:40:08;10.05;;;9.10;;
52888;SDS011;41413;52.770;6.892;2022-08-21T04:42:41;9.07;;;8.18;;
52888;SDS011;41413;52.770;6.892;2022-08-21T04:45:21;12.43;;;8.88;;
52888;SDS011;41413;52.770;6.892;2022-08-21T04:47:48;10.13;;;9.13;;
52888;SDS011;41413;52.770;6.892;2022-08-21T04:50:18;12.02;;;8.95;;
52888;SDS011;41413;52.770;6.892;2022-08-21T04:52:48;10.93;;;8.85;;
52888;SDS011;41413;52.770;6.892;2022-08-21T04:55:15;9.52;;;8.63;;
52888;SDS011;41413;52.770;6.892;2022-08-21T04:57:44;10.10;;;8.70;;
52888;SDS011;41413;52.770;6.892;2022-08-21T05:00:14;9.68;;;8.15;;
52888;SDS011;41413;52.770;6.892;2022-08-21T05:02:44;13.30;;;9.23;;
52888;SDS011;41413;52.770;6.892;2022-08-21T05:05:13;11.00;;;8.00;;
52888;SDS011;41413;52.770;6.892;2022-08-21T05:07:41;12.18;;;9.18;;
52888;SDS011;41413;52.770;6.892;2022-08-21T05:10:10;9.85;;;7.72;;
52888;SDS011;41413;52.770;6.892;2022-08-21T05:12:39;10.55;;;9.55;;
52888;SDS011;41413;52.770;6.892;2022-08-21T05:15:08;9.50;;;8.10;;
52888;SDS011;41413;52.770;6.892;2022-08-21T05:17:39;9.30;;;8.50;;
52888;SDS011;41413;52.770;6.892;2022-08-21T05:20:07;9.55;;;8.75;;
52888;SDS011;41413;52.770;6.892;2022-08-21T05:22:35;11.98;;;9.10;;
52888;SDS011;41413;52.770;6.892;2022-08-21T05:25:02;9.80;;;8.40;;
52888;SDS011;41413;52.770;6.892;2022-08-21T05:27:35;10.55;;;7.70;;
52888;SDS011;41413;52.770;6.892;2022-08-21T05:30:05;9.85;;;8.07;;
52888;SDS011;41413;52.770;6.892;2022-08-21T05:32:33;8.63;;;7.88;;
52888;SDS011;41413;52.770;6.892;2022-08-21T05:35:01;9.50;;;7.50;;
52888;SDS011;41413;52.770;6.892;2022-08-21T05:37:28;8.32;;;7.28;;
52888;SDS011;41413;52.770;6.892;2022-08-21T05:39:55;9.65;;;7.85;;
52888;SDS011;41413;52.770;6.892;2022-08-21T05:42:42;16.50;;;8.30;;
52888;SDS011;41413;52.770;6.892;2022-08-21T05:45:08;10.50;;;7.63;;
52888;SDS011;41413;52.770;6.892;2022-08-21T05:47:35;8.73;;;7.32;;
52888;SDS011;41413;52.770;6.892;2022-08-21T05:50:03;12.90;;;8.63;;
52888;SDS011;41413;52.770;6.892;2022-08-21T05:52:30;9.82;;;7.68;;
52888;SDS011;41413;52.770;6.892;2022-08-21T05:54:57;10.55;;;8.07;;
52888;SDS011;41413;52.770;6.892;2022-08-21T05:57:24;9.15;;;7.10;;
52888;SDS011;41413;52.770;6.892;2022-08-21T05:59:51;8.93;;;8.02;;
52888;SDS011;41413;52.770;6.892;2022-08-21T06:02:18;11.98;;;7.97;;
52888;SDS011;41413;52.770;6.892;2022-08-21T06:04:46;8.70;;;7.43;;
52888;SDS011;41413;52.770;6.892;2022-08-21T06:07:13;8.70;;;7.80;;
52888;SDS011;41413;52.770;6.892;2022-08-21T06:09:40;7.57;;;6.88;;
52888;SDS011;41413;52.770;6.892;2022-08-21T06:12:09;7.10;;;6.45;;
52888;SDS011;41413;52.770;6.892;2022-08-21T06:14:38;13.77;;;7.80;;
52888;SDS011;41413;52.770;6.892;2022-08-21T06:17:07;8.13;;;6.65;;
52888;SDS011;41413;52.770;6.892;2022-08-21T06:19:37;10.40;;;6.97;;
52888;SDS011;41413;52.770;6.892;2022-08-21T06:22:04;7.35;;;6.47;;
52888;SDS011;41413;52.770;6.892;2022-08-21T06:24:31;8.70;;;7.18;;
52888;SDS011;41413;52.770;6.892;2022-08-21T06:27:03;7.80;;;7.03;;
52888;SDS011;41413;52.770;6.892;2022-08-21T06:29:34;10.65;;;6.28;;
52888;SDS011;41413;52.770;6.892;2022-08-21T06:32:10;7.25;;;6.38;;
52888;SDS011;41413;52.770;6.892;2022-08-21T06:34:38;11.02;;;6.32;;
52888;SDS011;41413;52.770;6.892;2022-08-21T06:37:07;9.13;;;6.18;;
52888;SDS011;41413;52.770;6.892;2022-08-21T06:39:34;10.10;;;7.30;;
52888;SDS011;41413;52.770;6.892;2022-08-21T06:42:01;10.32;;;7.47;;
52888;SDS011;41413;52.770;6.892;2022-08-21T06:44:29;10.43;;;7.43;;
52888;SDS011;41413;52.770;6.892;2022-08-21T06:46:56;11.00;;;7.72;;
52888;SDS011;41413;52.770;6.892;2022-08-21T06:49:23;10.30;;;7.22;;
52888;SDS011;41413;52.770;6.892;2022-08-21T06:51:50;8.98;;;6.45;;
52888;SDS011;41413;52.770;6.892;2022-08-21T06:54:17;9.43;;;8.15;;
52888;SDS011;41413;52.770;6.892;2022-08-21T06:56:44;10.20;;;6.90;;
52888;SDS011;41413;52.770;6.892;2022-08-21T06:59:11;10.25;;;7.15;;
52888;SDS011;41413;52.770;6.892;2022-08-21T07:01:38;10.70;;;7.32;;
52888;SDS011;41413;52.770;6.892;2022-08-21T07:04:05;11.57;;;6.20;;
52888;SDS011;41413;52.770;6.892;2022-08-21T07:06:32;10.98;;;7.05;;
52888;SDS011;41413;52.770;6.892;2022-08-21T07:08:59;6.47;;;5.78;;
52888;SDS011;41413;52.770;6.892;2022-08-21T07:11:27;10.98;;;7.72;;
52888;SDS011;41413;52.770;6.892;2022-08-21T07:13:54;10.35;;;6.68;;
52888;SDS011;41413;52.770;6.892;2022-08-21T07:16:22;8.20;;;6.53;;
52888;SDS011;41413;52.770;6.892;2022-08-21T07:18:49;10.73;;;6.35;;
52888;SDS011;41413;52.770;6.892;2022-08-21T07:21:16;9.80;;;7.18;;
52888;SDS011;41413;52.770;6.892;2022-08-21T07:23:47;12.45;;;6.97;;
52888;SDS011;41413;52.770;6.892;2022-08-21T07:26:17;8.10;;;5.60;;
52888;SDS011;41413;52.770;6.892;2022-08-21T07:28:47;13.27;;;5.53;;
52888;SDS011;41413;52.770;6.892;2022-08-21T07:31:16;10.60;;;6.25;;
52888;SDS011;41413;52.770;6.892;2022-08-21T07:33:44;11.55;;;6.28;;
52888;SDS011;41413;52.770;6.892;2022-08-21T07:36:11;11.25;;;6.53;;
52888;SDS011;41413;52.770;6.892;2022-08-21T07:38:38;10.60;;;6.63;;
52888;SDS011;41413;52.770;6.892;2022-08-21T07:41:07;10.98;;;4.97;;
52888;SDS011;41413;52.770;6.892;2022-08-21T07:43:39;6.63;;;4.43;;
52888;SDS011;41413;52.770;6.892;2022-08-21T07:46:11;7.50;;;5.28;;
52888;SDS011;41413;52.770;6.892;2022-08-21T07:48:38;8.05;;;5.47;;
52888;SDS011;41413;52.770;6.892;2022-08-21T07:51:06;9.65;;;4.90;;
52888;SDS011;41413;52.770;6.892;2022-08-21T07:53:35;8.65;;;5.18;;
52888;SDS011;41413;52.770;6.892;2022-08-21T07:56:03;13.13;;;5.68;;
52888;SDS011;41413;52.770;6.892;2022-08-21T07:58:31;12.43;;;4.70;;
52888;SDS011;41413;52.770;6.892;2022-08-21T08:00:58;7.30;;;4.85;;
52888;SDS011;41413;52.770;6.892;2022-08-21T08:03:26;6.57;;;3.85;;
52888;SDS011;41413;52.770;6.892;2022-08-21T08:05:54;15.40;;;4.55;;
52888;SDS011;41413;52.770;6.892;2022-08-21T08:08:22;7.68;;;4.78;;
52888;SDS011;41413;52.770;6.892;2022-08-21T08:10:48;9.50;;;4.85;;
52888;SDS011;41413;52.770;6.892;2022-08-21T08:13:16;9.45;;;4.57;;
52888;SDS011;41413;52.770;6.892;2022-08-21T08:15:42;7.88;;;4.90;;
52888;SDS011;41413;52.770;6.892;2022-08-21T08:18:09;10.95;;;4.13;;
52888;SDS011;41413;52.770;6.892;2022-08-21T08:20:36;6.65;;;4.68;;
52888;SDS011;41413;52.770;6.892;2022-08-21T08:23:03;6.57;;;4.25;;
52888;SDS011;41413;52.770;6.892;2022-08-21T08:25:29;7.70;;;4.55;;
52888;SDS011;41413;52.770;6.892;2022-08-21T08:28:01;8.20;;;4.63;;
52888;SDS011;41413;52.770;6.892;2022-08-21T08:30:41;4.97;;;4.20;;
52888;SDS011;41413;52.770;6.892;2022-08-21T08:33:08;8.00;;;4.47;;
52888;SDS011;41413;52.770;6.892;2022-08-21T08:35:35;9.45;;;4.10;;
52888;SDS011;41413;52.770;6.892;2022-08-21T08:38:04;8.82;;;3.78;;
52888;SDS011;41413;52.770;6.892;2022-08-21T08:40:37;7.03;;;3.90;;
52888;SDS011;41413;52.770;6.892;2022-08-21T08:43:10;7.45;;;4.55;;
52888;SDS011;41413;52.770;6.892;2022-08-21T08:45:40;9.73;;;4.15;;
52888;SDS011;41413;52.770;6.892;2022-08-21T08:48:12;9.05;;;4.93;;
52888;SDS011;41413;52.770;6.892;2022-08-21T08:50:44;10.13;;;5.47;;
52888;SDS011;41413;52.770;6.892;2022-08-21T08:53:12;8.25;;;4.60;;
52888;SDS011;41413;52.770;6.892;2022-08-21T08:58:16;7.55;;;5.20;;
52888;SDS011;41413;52.770;6.892;2022-08-21T09:00:53;7.80;;;4.68;;
52888;SDS011;41413;52.770;6.892;2022-08-21T09:03:24;10.82;;;4.72;;
52888;SDS011;41413;52.770;6.892;2022-08-21T09:05:57;7.53;;;4.13;;
52888;SDS011;41413;52.770;6.892;2022-08-21T09:08:38;5.63;;;4.50;;
52888;SDS011;41413;52.770;6.892;2022-08-21T09:11:52;8.02;;;4.80;;
52888;SDS011;41413;52.770;6.892;2022-08-21T09:20:06;12.43;;;4.50;;
52888;SDS011;41413;52.770;6.892;2022-08-21T09:25:27;5.50;;;4.38;;
52888;SDS011;41413;52.770;6.892;2022-08-21T09:28:00;13.82;;;4.18;;
52888;SDS011;41413;52.770;6.892;2022-08-21T09:30:28;9.70;;;4.47;;
52888;SDS011;41413;52.770;6.892;2022-08-21T09:32:57;5.75;;;4.55;;
52888;SDS011;41413;52.770;6.892;2022-08-21T09:35:24;5.57;;;3.45;;
52888;SDS011;41413;52.770;6.892;2022-08-21T09:37:58;7.32;;;4.15;;
52888;SDS011;41413;52.770;6.892;2022-08-21T09:40:35;4.47;;;3.63;;
52888;SDS011;41413;52.770;6.892;2022-08-21T09:45:40;7.93;;;3.80;;
52888;SDS011;41413;52.770;6.892;2022-08-21T09:48:29;8.18;;;4.03;;
52888;SDS011;41413;52.770;6.892;2022-08-21T09:51:05;5.45;;;3.70;;
52888;SDS011;41413;52.770;6.892;2022-08-21T09:53:37;5.05;;;3.95;;
52888;SDS011;41413;52.770;6.892;2022-08-21T09:56:51;4.43;;;3.97;;
52888;SDS011;41413;52.770;6.892;2022-08-21T09:59:25;6.53;;;4.75;;
52888;SDS011;41413;52.770;6.892;2022-08-21T10:01:53;6.93;;;3.85;;
52888;SDS011;41413;52.770;6.892;2022-08-21T10:04:35;5.70;;;4.00;;
52888;SDS011;41413;52.770;6.892;2022-08-21T10:07:09;5.43;;;3.60;;
52888;SDS011;41413;52.770;6.892;2022-08-21T10:09:37;7.55;;;4.07;;
52888;SDS011;41413;52.770;6.892;2022-08-21T10:12:10;6.40;;;3.88;;
52888;SDS011;41413;52.770;6.892;2022-08-21T10:23:29;4.82;;;3.55;;
52888;SDS011;41413;52.770;6.892;2022-08-21T10:26:05;10.77;;;4.55;;
52888;SDS011;41413;52.770;6.892;2022-08-21T10:29:00;7.45;;;4.18;;
52888;SDS011;41413;52.770;6.892;2022-08-21T10:31:53;6.72;;;4.40;;
52888;SDS011;41413;52.770;6.892;2022-08-21T10:34:58;5.75;;;4.93;;
52888;SDS011;41413;52.770;6.892;2022-08-21T10:37:37;8.30;;;3.90;;
52888;SDS011;41413;52.770;6.892;2022-08-21T10:51:11;6.40;;;3.65;;
52888;SDS011;41413;52.770;6.892;2022-08-21T10:56:19;3.95;;;2.83;;
52888;SDS011;41413;52.770;6.892;2022-08-21T11:01:53;5.10;;;3.00;;
52888;SDS011;41413;52.770;6.892;2022-08-21T11:04:56;7.10;;;3.95;;
52888;SDS011;41413;52.770;6.892;2022-08-21T11:07:29;5.93;;;3.95;;
52888;SDS011;41413;52.770;6.892;2022-08-21T11:10:02;8.20;;;3.63;;
52888;SDS011;41413;52.770;6.892;2022-08-21T11:12:46;6.38;;;4.10;;
52888;SDS011;41413;52.770;6.892;2022-08-21T11:23:25;5.75;;;4.07;;
52888;SDS011;41413;52.770;6.892;2022-08-21T11:26:06;7.65;;;3.90;;
52888;SDS011;41413;52.770;6.892;2022-08-21T11:28:46;5.53;;;3.50;;
52888;SDS011;41413;52.770;6.892;2022-08-21T11:37:29;6.60;;;3.33;;
52888;SDS011;41413;52.770;6.892;2022-08-21T11:40:19;5.30;;;3.08;;
52888;SDS011;41413;52.770;6.892;2022-08-21T11:45:25;5.13;;;3.58;;
52888;SDS011;41413;52.770;6.892;2022-08-21T11:50:50;8.70;;;3.35;;
52888;SDS011;41413;52.770;6.892;2022-08-21T11:53:32;4.10;;;3.28;;
52888;SDS011;41413;52.770;6.892;2022-08-21T11:58:42;4.20;;;3.10;;
52888;SDS011;41413;52.770;6.892;2022-08-21T12:01:17;5.90;;;3.90;;
52888;SDS011;41413;52.770;6.892;2022-08-21T12:03:55;4.30;;;2.95;;
52888;SDS011;41413;52.770;6.892;2022-08-21T12:06:30;6.30;;;3.45;;
52888;SDS011;41413;52.770;6.892;2022-08-21T12:09:50;6.38;;;3.13;;
52888;SDS011;41413;52.770;6.892;2022-08-21T12:14:40;5.50;;;3.00;;
52888;SDS011;41413;52.770;6.892;2022-08-21T12:17:19;4.55;;;3.25;;
52888;SDS011;41413;52.770;6.892;2022-08-21T12:19:58;6.00;;;3.58;;
52888;SDS011;41413;52.770;6.892;2022-08-21T12:22:36;6.80;;;3.55;;
52888;SDS011;41413;52.770;6.892;2022-08-21T12:25:08;5.20;;;3.17;;
52888;SDS011;41413;52.770;6.892;2022-08-21T12:30:32;7.32;;;3.63;;
52888;SDS011;41413;52.770;6.892;2022-08-21T12:33:03;9.70;;;3.65;;
52888;SDS011;41413;52.770;6.892;2022-08-21T12:44:10;7.78;;;3.65;;
52888;SDS011;41413;52.770;6.892;2022-08-21T12:46:51;5.00;;;2.83;;
52888;SDS011;41413;52.770;6.892;2022-08-21T12:49:27;8.45;;;3.25;;
52888;SDS011;41413;52.770;6.892;2022-08-21T12:52:03;4.32;;;3.17;;
52888;SDS011;41413;52.770;6.892;2022-08-21T12:54:39;5.45;;;3.65;;
52888;SDS011;41413;52.770;6.892;2022-08-21T12:57:07;4.15;;;3.08;;
52888;SDS011;41413;52.770;6.892;2022-08-21T12:59:42;6.65;;;3.45;;
52888;SDS011;41413;52.770;6.892;2022-08-21T13:02:16;7.13;;;3.40;;
52888;SDS011;41413;52.770;6.892;2022-08-21T13:04:46;7.50;;;2.70;;
52888;SDS011;41413;52.770;6.892;2022-08-21T13:07:15;7.70;;;3.13;;
52888;SDS011;41413;52.770;6.892;2022-08-21T13:09:52;4.40;;;3.22;;
52888;SDS011;41413;52.770;6.892;2022-08-21T13:12:22;6.90;;;3.20;;
52888;SDS011;41413;52.770;6.892;2022-08-21T13:14:58;11.05;;;3.88;;
52888;SDS011;41413;52.770;6.892;2022-08-21T13:17:30;7.93;;;4.00;;
52888;SDS011;41413;52.770;6.892;2022-08-21T13:20:08;3.20;;;2.90;;
52888;SDS011;41413;52.770;6.892;2022-08-21T13:22:44;4.07;;;3.15;;
52888;SDS011;41413;52.770;6.892;2022-08-21T13:25:12;6.28;;;3.97;;
52888;SDS011;41413;52.770;6.892;2022-08-21T13:27:42;6.38;;;3.08;;
52888;SDS011;41413;52.770;6.892;2022-08-21T13:30:14;4.97;;;3.35;;
52888;SDS011;41413;52.770;6.892;2022-08-21T13:32:48;7.10;;;3.83;;
52888;SDS011;41413;52.770;6.892;2022-08-21T13:35:22;3.33;;;3.03;;
52888;SDS011;41413;52.770;6.892;2022-08-21T13:37:52;9.60;;;4.32;;
52888;SDS011;41413;52.770;6.892;2022-08-21T13:40:25;6.63;;;3.63;;
52888;SDS011;41413;52.770;6.892;2022-08-21T13:42:57;6.53;;;3.85;;
52888;SDS011;41413;52.770;6.892;2022-08-21T13:45:29;7.80;;;4.05;;
52888;SDS011;41413;52.770;6.892;2022-08-21T13:47:59;4.95;;;3.60;;
52888;SDS011;41413;52.770;6.892;2022-08-21T13:50:31;8.32;;;3.80;;
52888;SDS011;41413;52.770;6.892;2022-08-21T13:53:05;5.15;;;3.75;;
52888;SDS011;41413;52.770;6.892;2022-08-21T13:55:37;6.78;;;3.30;;
52888;SDS011;41413;52.770;6.892;2022-08-21T13:58:08;7.40;;;3.60;;
52888;SDS011;41413;52.770;6.892;2022-08-21T14:00:51;5.82;;;3.30;;
52888;SDS011;41413;52.770;6.892;2022-08-21T14:03:38;5.10;;;3.25;;
52888;SDS011;41413;52.770;6.892;2022-08-21T14:06:24;9.05;;;3.60;;
52888;SDS011;41413;52.770;6.892;2022-08-21T14:08:55;5.82;;;3.40;;
52888;SDS011;41413;52.770;6.892;2022-08-21T14:11:26;9.23;;;3.67;;
52888;SDS011;41413;52.770;6.892;2022-08-21T14:13:58;6.90;;;4.30;;
52888;SDS011;41413;52.770;6.892;2022-08-21T14:16:28;5.38;;;3.38;;
52888;SDS011;41413;52.770;6.892;2022-08-21T14:19:50;7.10;;;4.07;;
52888;SDS011;41413;52.770;6.892;2022-08-21T14:25:03;4.00;;;2.85;;
52888;SDS011;41413;52.770;6.892;2022-08-21T14:27:40;6.28;;;3.35;;
52888;SDS011;41413;52.770;6.892;2022-08-21T14:30:21;4.53;;;3.33;;
52888;SDS011;41413;52.770;6.892;2022-08-21T14:32:54;5.25;;;3.45;;
52888;SDS011;41413;52.770;6.892;2022-08-21T14:35:21;4.45;;;3.08;;
52888;SDS011;41413;52.770;6.892;2022-08-21T14:37:49;6.55;;;3.28;;
52888;SDS011;41413;52.770;6.892;2022-08-21T14:40:17;7.57;;;4.03;;
52888;SDS011;41413;52.770;6.892;2022-08-21T14:42:45;6.93;;;4.03;;
52888;SDS011;41413;52.770;6.892;2022-08-21T14:48:09;6.43;;;3.58;;
52888;SDS011;41413;52.770;6.892;2022-08-21T14:50:37;10.68;;;4.38;;
52888;SDS011;41413;52.770;6.892;2022-08-21T14:53:03;9.02;;;4.57;;
52888;SDS011;41413;52.770;6.892;2022-08-21T14:55:37;6.82;;;4.28;;
52888;SDS011;41413;52.770;6.892;2022-08-21T14:58:24;7.45;;;3.90;;
52888;SDS011;41413;52.770;6.892;2022-08-21T15:00:51;6.30;;;4.30;;
52888;SDS011;41413;52.770;6.892;2022-08-21T15:03:20;6.57;;;3.95;;
52888;SDS011;41413;52.770;6.892;2022-08-21T15:05:50;9.18;;;4.20;;
52888;SDS011;41413;52.770;6.892;2022-08-21T15:08:17;7.25;;;3.58;;
52888;SDS011;41413;52.770;6.892;2022-08-21T15:10:44;5.13;;;3.30;;
52888;SDS011;41413;52.770;6.892;2022-08-21T15:13:31;8.85;;;4.07;;
52888;SDS011;41413;52.770;6.892;2022-08-21T15:15:59;11.43;;;3.58;;
52888;SDS011;41413;52.770;6.892;2022-08-21T15:18:26;5.72;;;3.97;;
52888;SDS011;41413;52.770;6.892;2022-08-21T15:20:54;5.80;;;3.88;;
52888;SDS011;41413;52.770;6.892;2022-08-21T15:23:21;5.53;;;3.55;;
52888;SDS011;41413;52.770;6.892;2022-08-21T15:25:49;9.10;;;4.10;;
52888;SDS011;41413;52.770;6.892;2022-08-21T15:28:16;7.10;;;4.30;;
52888;SDS011;41413;52.770;6.892;2022-08-21T15:30:44;5.18;;;3.60;;
52888;SDS011;41413;52.770;6.892;2022-08-21T15:33:11;4.38;;;3.70;;
52888;SDS011;41413;52.770;6.892;2022-08-21T15:35:37;4.55;;;4.07;;
52888;SDS011;41413;52.770;6.892;2022-08-21T15:38:06;8.27;;;4.03;;
52888;SDS011;41413;52.770;6.892;2022-08-21T15:40:36;5.13;;;3.53;;
52888;SDS011;41413;52.770;6.892;2022-08-21T15:43:21;5.25;;;3.70;;
52888;SDS011;41413;52.770;6.892;2022-08-21T15:45:55;6.70;;;4.15;;
52888;SDS011;41413;52.770;6.892;2022-08-21T15:48:26;5.80;;;4.55;;
52888;SDS011;41413;52.770;6.892;2022-08-21T15:50:53;5.90;;;3.55;;
52888;SDS011;41413;52.770;6.892;2022-08-21T15:53:20;7.45;;;4.30;;
52888;SDS011;41413;52.770;6.892;2022-08-21T15:55:47;8.32;;;4.15;;
52888;SDS011;41413;52.770;6.892;2022-08-21T15:58:14;6.45;;;3.67;;
52888;SDS011;41413;52.770;6.892;2022-08-21T16:00:43;7.32;;;4.57;;
52888;SDS011;41413;52.770;6.892;2022-08-21T16:03:11;5.93;;;4.40;;
52888;SDS011;41413;52.770;6.892;2022-08-21T16:05:43;4.82;;;3.85;;
52888;SDS011;41413;52.770;6.892;2022-08-21T16:08:10;7.72;;;3.63;;
52888;SDS011;41413;52.770;6.892;2022-08-21T16:10:37;9.27;;;4.60;;
52888;SDS011;41413;52.770;6.892;2022-08-21T16:13:06;6.00;;;3.60;;
52888;SDS011;41413;52.770;6.892;2022-08-21T16:15:38;4.05;;;3.25;;
52888;SDS011;41413;52.770;6.892;2022-08-21T16:18:05;5.97;;;4.20;;
52888;SDS011;41413;52.770;6.892;2022-08-21T16:20:32;9.88;;;4.03;;
52888;SDS011;41413;52.770;6.892;2022-08-21T16:22:59;3.97;;;3.58;;
52888;SDS011;41413;52.770;6.892;2022-08-21T16:25:26;5.57;;;3.58;;
52888;SDS011;41413;52.770;6.892;2022-08-21T16:27:54;5.35;;;3.70;;
52888;SDS011;41413;52.770;6.892;2022-08-21T16:30:25;8.98;;;4.07;;